Terminal Aerodrome Forecast
Issued by NWS

Home | Current Version | Previous Version | Text Only | Print | Product List | Glossary On
Versions: 1 2 3 4 5 6 7 8 9 10 11 12 13 14 15 16 17 18 19 20 21 22 23
000
FTUS41 KPBZ 301959 AAA
TAFBVI
TAF AMD
KBVI 301959Z 3020/0118 12006KT P6SM -RA BKN080
     FM010000 12005KT 3SM -RA BR OVC025
     FM010500 14007KT 4SM -RA OVC007
     FM011200 20006KT P6SM -SHRA OVC012
     FM011500 23007KT P6SM VCSH BKN035=

USA.gov is the U.S. government's official web portal to all federal, state and local government web resources and services.